Time;durP1;ratioP1;P1;durP2;ratioP2;P2;SDS_P1;SDS_P2;PMS_P1;PMS_P2;Temp;Humidity;BMP_temperature;BMP_pressure;BME280_temperature;BME280_humidity;BME280_pressure;Samples;Min_cycle;Max_cycle;Signal;HPM_P1;HPM_P2
2024/01/25 00:03:09;;;;;;;23.35;14.35;;;;;;;;;;10091642;28;20464;-78
2024/01/25 00:08:01;;;;;;;25.17;15.38;;;;;;;;;;10099925;28;20050;-77
2024/01/25 00:12:54;;;;;;;22.42;15.77;;;;;;;;;;10100277;28;20045;-77
2024/01/25 00:17:45;;;;;;;25.00;17.08;;;;;;;;;;10100277;28;20067;-77
2024/01/25 00:22:41;;;;;;;27.30;20.27;;;;;;;;;;10098362;28;20116;-77
2024/01/25 00:27:33;;;;;;;24.27;17.42;;;;;;;;;;10099325;28;20075;-77
2024/01/25 00:32:25;;;;;;;23.05;16.48;;;;;;;;;;10098530;28;20155;-77
2024/01/25 00:37:17;;;;;;;24.02;18.23;;;;;;;;;;10098369;28;20163;-77
2024/01/25 00:42:12;;;;;;;25.25;16.92;;;;;;;;;;10098231;28;20045;-77
2024/01/25 00:47:05;;;;;;;24.17;17.85;;;;;;;;;;10099224;28;20113;-78
2024/01/25 00:52:00;;;;;;;32.25;20.55;;;;;;;;;;10098059;28;20379;-78
2024/01/25 00:56:52;;;;;;;25.98;18.95;;;;;;;;;;10097732;28;20049;-78
2024/01/25 01:01:47;;;;;;;23.75;17.55;;;;;;;;;;10097952;28;20041;-77
2024/01/25 01:06:39;;;;;;;21.60;17.88;;;;;;;;;;10097231;28;20534;-77
2024/01/25 01:11:31;;;;;;;23.63;17.85;;;;;;;;;;10098669;28;20044;-78
2024/01/25 01:16:23;;;;;;;22.60;16.65;;;;;;;;;;10096170;28;20045;-77
2024/01/25 01:21:15;;;;;;;27.65;18.70;;;;;;;;;;10097089;28;20040;-77
2024/01/25 01:26:07;;;;;;;24.65;20.02;;;;;;;;;;10098389;28;20099;-77
2024/01/25 01:30:59;;;;;;;24.27;20.15;;;;;;;;;;10095146;28;20048;-77
2024/01/25 01:35:51;;;;;;;24.80;19.23;;;;;;;;;;10099930;28;20479;-77
2024/01/25 01:40:45;;;;;;;25.35;19.88;;;;;;;;;;10097595;28;20128;-78
2024/01/25 01:45:37;;;;;;;27.80;20.15;;;;;;;;;;10095193;28;20053;-77
2024/01/25 01:50:29;;;;;;;28.05;21.25;;;;;;;;;;10096023;28;20041;-77
2024/01/25 01:55:21;;;;;;;28.73;21.48;;;;;;;;;;10089528;28;20095;-77
2024/01/25 02:00:15;;;;;;;27.73;19.17;;;;;;;;;;10095177;28;20041;-77
2024/01/25 02:05:07;;;;;;;26.23;20.58;;;;;;;;;;10094767;28;20459;-77
2024/01/25 02:09:59;;;;;;;24.83;20.40;;;;;;;;;;10094862;28;20051;-77
2024/01/25 02:14:51;;;;;;;26.63;21.35;;;;;;;;;;10094207;28;20484;-77
2024/01/25 02:19:43;;;;;;;38.97;25.70;;;;;;;;;;10096960;28;20115;-77
2024/01/25 02:24:35;;;;;;;27.98;21.90;;;;;;;;;;10097203;28;20044;-78
2024/01/25 02:29:27;;;;;;;29.75;24.02;;;;;;;;;;10097809;28;20432;-77
2024/01/25 02:34:19;;;;;;;27.52;17.85;;;;;;;;;;10103868;28;20071;-77
2024/01/25 02:39:11;;;;;;;23.52;15.82;;;;;;;;;;10103957;28;20059;-77
2024/01/25 02:44:03;;;;;;;21.70;16.85;;;;;;;;;;10104263;28;20041;-77
2024/01/25 02:48:55;;;;;;;32.03;16.80;;;;;;;;;;10104577;28;20128;-77
2024/01/25 02:53:47;;;;;;;24.85;17.65;;;;;;;;;;10102062;28;20037;-77
2024/01/25 02:58:39;;;;;;;22.30;16.33;;;;;;;;;;10103599;28;20043;-77
2024/01/25 03:03:31;;;;;;;27.60;18.33;;;;;;;;;;10101381;28;20067;-77
2024/01/25 03:08:23;;;;;;;24.48;19.90;;;;;;;;;;10102779;28;20048;-77
2024/01/25 03:13:16;;;;;;;23.15;18.00;;;;;;;;;;10102095;28;20076;-77
2024/01/25 03:18:08;;;;;;;23.02;19.42;;;;;;;;;;10101245;28;20051;-76
2024/01/25 03:23:00;;;;;;;20.40;16.92;;;;;;;;;;10098673;28;20051;-77
2024/01/25 03:27:52;;;;;;;27.33;21.50;;;;;;;;;;10102950;28;20080;-77
2024/01/25 03:32:47;;;;;;;35.22;24.50;;;;;;;;;;10099851;28;20106;-77
2024/01/25 03:37:39;;;;;;;40.33;24.77;;;;;;;;;;10101716;28;20464;-77
2024/01/25 03:42:31;;;;;;;28.55;25.65;;;;;;;;;;10099394;28;20444;-77
2024/01/25 03:47:23;;;;;;;31.00;25.40;;;;;;;;;;10094447;28;20372;-77
2024/01/25 03:52:15;;;;;;;32.25;23.27;;;;;;;;;;10100001;28;20076;-77
2024/01/25 03:57:07;;;;;;;34.17;25.27;;;;;;;;;;10101701;28;20041;-77
2024/01/25 04:01:59;;;;;;;35.65;25.45;;;;;;;;;;10100405;28;20041;-77
2024/01/25 04:06:51;;;;;;;35.38;27.58;;;;;;;;;;10099343;28;20542;-77
2024/01/25 04:11:43;;;;;;;34.25;26.85;;;;;;;;;;10099116;28;20041;-77
2024/01/25 04:16:35;;;;;;;39.65;28.33;;;;;;;;;;10100459;28;20387;-77
2024/01/25 04:21:28;;;;;;;32.60;26.45;;;;;;;;;;10098232;28;20391;-77
2024/01/25 04:26:19;;;;;;;35.60;28.08;;;;;;;;;;10099612;28;20084;-78
2024/01/25 04:31:11;;;;;;;31.63;25.85;;;;;;;;;;10100768;28;20056;-77
2024/01/25 04:36:04;;;;;;;36.22;28.75;;;;;;;;;;10100017;28;20134;-77
2024/01/25 04:40:57;;;;;;;30.88;27.75;;;;;;;;;;10099531;28;20049;-77
2024/01/25 04:45:49;;;;;;;32.63;27.02;;;;;;;;;;10100427;28;20049;-77
2024/01/25 04:50:41;;;;;;;35.65;26.30;;;;;;;;;;10098228;28;20121;-77
2024/01/25 04:55:33;;;;;;;36.38;26.92;;;;;;;;;;10098340;28;20052;-77
2024/01/25 05:00:25;;;;;;;38.75;30.38;;;;;;;;;;10098259;28;20453;-76
2024/01/25 05:05:17;;;;;;;39.50;29.75;;;;;;;;;;10096866;28;20155;-77
2024/01/25 05:10:09;;;;;;;42.50;31.17;;;;;;;;;;10097572;28;20136;-77
2024/01/25 05:15:01;;;;;;;39.50;32.08;;;;;;;;;;10096416;28;20091;-76
2024/01/25 05:19:53;;;;;;;43.72;34.47;;;;;;;;;;10099959;28;20156;-77
2024/01/25 05:24:46;;;;;;;37.97;30.55;;;;;;;;;;10095071;28;20047;-76
2024/01/25 05:29:38;;;;;;;67.03;50.58;;;;;;;;;;10097374;28;20384;-77
2024/01/25 05:34:30;;;;;;;45.25;32.25;;;;;;;;;;10097427;28;20044;-77
2024/01/25 05:39:22;;;;;;;43.00;34.70;;;;;;;;;;10096486;28;20055;-77
2024/01/25 05:44:14;;;;;;;40.20;32.45;;;;;;;;;;10098171;28;20103;-77
2024/01/25 05:49:06;;;;;;;64.05;46.95;;;;;;;;;;10096198;28;20049;-77
2024/01/25 05:53:58;;;;;;;64.90;47.78;;;;;;;;;;10098360;28;20060;-78
2024/01/25 05:58:50;;;;;;;76.97;53.25;;;;;;;;;;10094443;28;20057;-77
2024/01/25 06:03:42;;;;;;;58.50;44.20;;;;;;;;;;10098709;28;20037;-77
2024/01/25 06:08:35;;;;;;;58.65;43.92;;;;;;;;;;10100121;28;20124;-76
2024/01/25 06:13:27;;;;;;;65.03;52.35;;;;;;;;;;10072946;28;20881;-76
2024/01/25 06:18:19;;;;;;;82.70;62.42;;;;;;;;;;10097575;28;20053;-76
2024/01/25 06:23:14;;;;;;;61.13;45.65;;;;;;;;;;10097678;28;20042;-80
2024/01/25 06:28:06;;;;;;;44.95;34.90;;;;;;;;;;10069966;28;20069;-80
2024/01/25 06:32:58;;;;;;;88.05;57.00;;;;;;;;;;10102944;28;20052;-81
2024/01/25 06:37:50;;;;;;;52.70;37.40;;;;;;;;;;10073514;28;20041;-81
2024/01/25 06:42:44;;;;;;;80.13;54.08;;;;;;;;;;10090275;28;20468;-81
2024/01/25 06:47:36;;;;;;;45.67;35.42;;;;;;;;;;10067791;28;20322;-81
2024/01/25 06:52:28;;;;;;;41.78;28.73;;;;;;;;;;10066466;28;20464;-81
2024/01/25 06:57:23;;;;;;;43.20;31.50;;;;;;;;;;10070724;28;20049;-81
2024/01/25 07:02:14;;;;;;;88.57;69.63;;;;;;;;;;10091105;28;20049;-81
2024/01/25 07:07:07;;;;;;;95.70;78.63;;;;;;;;;;10069092;28;20048;-81
2024/01/25 07:11:59;;;;;;;54.15;43.30;;;;;;;;;;10068766;28;20125;-81
2024/01/25 07:16:51;;;;;;;55.03;42.60;;;;;;;;;;10080938;28;20111;-81
2024/01/25 07:21:45;;;;;;;52.72;42.28;;;;;;;;;;10068665;28;20050;-82
2024/01/25 07:26:37;;;;;;;45.58;38.08;;;;;;;;;;10068614;28;20055;-82
2024/01/25 07:31:29;;;;;;;54.88;43.92;;;;;;;;;;10067670;28;20391;-82
2024/01/25 07:36:21;;;;;;;51.50;41.72;;;;;;;;;;10067035;28;20046;-81
2024/01/25 07:41:16;;;;;;;50.88;39.95;;;;;;;;;;10080958;28;20038;-82
2024/01/25 07:46:08;;;;;;;60.70;48.60;;;;;;;;;;10068534;28;20041;-83
2024/01/25 07:51:00;;;;;;;48.63;38.17;;;;;;;;;;10093289;28;20046;-82
2024/01/25 07:55:52;;;;;;;52.22;42.45;;;;;;;;;;10072942;28;20057;-77
2024/01/25 08:00:45;;;;;;;54.38;43.17;;;;;;;;;;10065605;28;20030;-78
2024/01/25 08:05:37;;;;;;;52.38;42.70;;;;;;;;;;10079976;28;20049;-78
2024/01/25 08:10:39;;;;;;;52.03;43.05;;;;;;;;;;10098378;28;20084;-78
2024/01/25 08:15:31;;;;;;;51.63;40.40;;;;;;;;;;10101271;28;20071;-78
2024/01/25 08:20:23;;;;;;;60.47;46.35;;;;;;;;;;10099529;28;20041;-78
2024/01/25 08:25:16;;;;;;;54.55;45.47;;;;;;;;;;10095461;28;20044;-76
2024/01/25 08:30:08;;;;;;;56.00;44.20;;;;;;;;;;10086629;28;20049;-76
2024/01/25 08:35:00;;;;;;;57.85;44.95;;;;;;;;;;10099281;28;20441;-76
2024/01/25 08:39:52;;;;;;;68.93;49.95;;;;;;;;;;10095624;28;20232;-76
2024/01/25 08:44:49;;;;;;;58.60;46.90;;;;;;;;;;10095606;28;20046;-76
2024/01/25 08:49:42;;;;;;;55.83;45.72;;;;;;;;;;10095839;28;20901;-76
2024/01/25 08:54:35;;;;;;;58.55;48.70;;;;;;;;;;10097715;28;20367;-77
2024/01/25 08:59:29;;;;;;;60.95;50.25;;;;;;;;;;10089252;28;20076;-77
2024/01/25 09:04:21;;;;;;;61.58;51.50;;;;;;;;;;10098756;28;20037;-77
2024/01/25 09:09:16;;;;;;;59.55;49.50;;;;;;;;;;10096104;28;20427;-76
2024/01/25 09:14:08;;;;;;;60.80;48.60;;;;;;;;;;10098388;28;20076;-76
2024/01/25 09:19:00;;;;;;;65.32;56.58;;;;;;;;;;10095364;28;20472;-76
2024/01/25 09:23:52;;;;;;;63.72;52.03;;;;;;;;;;10089308;28;20045;-76
2024/01/25 09:28:44;;;;;;;64.78;56.35;;;;;;;;;;10092398;28;20044;-76
2024/01/25 09:33:36;;;;;;;69.50;58.88;;;;;;;;;;10098758;28;20048;-77
2024/01/25 09:38:29;;;;;;;57.00;49.85;;;;;;;;;;10096773;28;20106;-77
2024/01/25 09:43:22;;;;;;;59.85;49.35;;;;;;;;;;10097843;28;20040;-77
2024/01/25 09:48:14;;;;;;;59.17;47.05;;;;;;;;;;10088370;28;20042;-76
2024/01/25 09:53:08;;;;;;;53.00;40.33;;;;;;;;;;10097990;28;20037;-77
2024/01/25 09:58:00;;;;;;;43.67;37.38;;;;;;;;;;10088276;28;20052;-77
2024/01/25 10:02:52;;;;;;;57.53;37.97;;;;;;;;;;10096134;28;20336;-78
2024/01/25 10:07:46;;;;;;;40.88;34.97;;;;;;;;;;10096828;28;20043;-77
2024/01/25 10:12:39;;;;;;;41.70;34.28;;;;;;;;;;10097530;28;20029;-78
2024/01/25 10:17:31;;;;;;;43.00;35.72;;;;;;;;;;10096283;28;20460;-78
2024/01/25 10:22:43;;;;;;;47.30;40.20;;;;;;;;;;10096519;28;20086;-78
2024/01/25 10:27:36;;;;;;;50.92;42.17;;;;;;;;;;10091441;28;20122;-77
2024/01/25 10:32:28;;;;;;;49.50;40.55;;;;;;;;;;10090308;28;20535;-77
2024/01/25 10:37:21;;;;;;;49.85;39.70;;;;;;;;;;10095888;28;20455;-78
2024/01/25 10:42:13;;;;;;;50.97;40.90;;;;;;;;;;10096625;28;20141;-78
2024/01/25 10:47:06;;;;;;;49.10;41.15;;;;;;;;;;10093996;28;20103;-78
2024/01/25 10:51:58;;;;;;;54.40;42.80;;;;;;;;;;10097101;28;20053;-78
2024/01/25 10:56:52;;;;;;;65.00;44.03;;;;;;;;;;10093842;28;20049;-77
2024/01/25 11:01:48;;;;;;;51.00;43.38;;;;;;;;;;10103742;28;20464;-78
2024/01/25 11:06:40;;;;;;;53.75;44.38;;;;;;;;;;10104197;28;20034;-78
2024/01/25 11:11:35;;;;;;;56.22;45.72;;;;;;;;;;10101227;28;20049;-79
2024/01/25 11:16:34;;;;;;;55.25;44.67;;;;;;;;;;10101483;28;20150;-78
2024/01/25 11:21:39;;;;;;;59.75;46.00;;;;;;;;;;10093092;28;20494;-79
2024/01/25 11:26:34;;;;;;;60.00;48.33;;;;;;;;;;10097114;28;20124;-78
2024/01/25 11:31:27;;;;;;;61.08;45.72;;;;;;;;;;10093342;28;20500;-79
2024/01/25 11:36:21;;;;;;;55.25;44.42;;;;;;;;;;10101082;28;20037;-78
2024/01/25 11:41:13;;;;;;;56.35;47.60;;;;;;;;;;10102100;28;20094;-78
2024/01/25 11:46:05;;;;;;;71.65;51.40;;;;;;;;;;10099799;28;20048;-78
2024/01/25 11:50:59;;;;;;;57.85;45.83;;;;;;;;;;10102052;28;20061;-79
2024/01/25 11:55:52;;;;;;;62.88;51.10;;;;;;;;;;10098005;28;20044;-78
2024/01/25 12:00:44;;;;;;;57.67;45.97;;;;;;;;;;10089827;28;20136;-78
2024/01/25 12:05:36;;;;;;;56.25;43.80;;;;;;;;;;10093649;28;20048;-78
2024/01/25 12:10:28;;;;;;;59.83;47.45;;;;;;;;;;10094782;28;20080;-78
2024/01/25 12:15:21;;;;;;;65.97;49.20;;;;;;;;;;10100391;28;20128;-78
2024/01/25 12:20:13;;;;;;;55.72;45.22;;;;;;;;;;10093353;28;20430;-79
2024/01/25 12:25:13;;;;;;;61.15;45.88;;;;;;;;;;10087896;28;20041;-78
2024/01/25 12:30:06;;;;;;;56.70;44.38;;;;;;;;;;10088318;28;20080;-78
2024/01/25 12:35:00;;;;;;;69.35;46.58;;;;;;;;;;10083972;28;20094;-78
2024/01/25 12:39:54;;;;;;;49.97;43.33;;;;;;;;;;10089311;28;20053;-78
2024/01/25 12:44:46;;;;;;;56.10;42.38;;;;;;;;;;10087779;28;20048;-78
2024/01/25 12:49:41;;;;;;;57.40;44.38;;;;;;;;;;10094557;28;20041;-78
2024/01/25 12:54:33;;;;;;;52.05;43.17;;;;;;;;;;10094813;28;20045;-78
2024/01/25 12:59:25;;;;;;;54.28;42.08;;;;;;;;;;10089585;28;20049;-78
2024/01/25 13:04:17;;;;;;;52.92;41.60;;;;;;;;;;10096005;28;20460;-78
2024/01/25 13:09:10;;;;;;;56.30;42.35;;;;;;;;;;10098423;28;20052;-78
2024/01/25 13:14:02;;;;;;;52.20;42.35;;;;;;;;;;10095310;28;20502;-78
2024/01/25 13:18:54;;;;;;;49.20;39.47;;;;;;;;;;10096310;28;20067;-78
2024/01/25 13:23:46;;;;;;;46.97;38.47;;;;;;;;;;10091917;28;20047;-77
2024/01/25 13:28:38;;;;;;;49.47;39.67;;;;;;;;;;10096710;28;20049;-78
2024/01/25 13:33:30;;;;;;;52.15;40.67;;;;;;;;;;10097930;28;20524;-77
2024/01/25 13:38:24;;;;;;;50.72;40.53;;;;;;;;;;10097723;28;20143;-77
2024/01/25 13:43:16;;;;;;;55.20;43.70;;;;;;;;;;10097134;28;20479;-78
2024/01/25 13:48:08;;;;;;;58.78;43.10;;;;;;;;;;10097385;28;20380;-78
2024/01/25 13:53:00;;;;;;;55.28;42.95;;;;;;;;;;10095624;28;20041;-77
2024/01/25 13:57:52;;;;;;;71.50;58.72;;;;;;;;;;10077351;28;20132;-77
2024/01/25 14:02:45;;;;;;;73.28;61.03;;;;;;;;;;10083378;28;20053;-77
2024/01/25 14:07:37;;;;;;;74.60;61.10;;;;;;;;;;10084563;28;20036;-77
2024/01/25 14:12:29;;;;;;;76.82;61.97;;;;;;;;;;10096655;28;20371;-77
2024/01/25 14:17:22;;;;;;;72.50;62.20;;;;;;;;;;10088939;28;20053;-77
2024/01/25 14:22:14;;;;;;;82.63;65.63;;;;;;;;;;10095853;28;20045;-77
2024/01/25 14:27:21;;;;;;;92.53;65.20;;;;;;;;;;10098978;28;20064;-77
2024/01/25 14:32:13;;;;;;;74.43;60.85;;;;;;;;;;10103956;28;20102;-77
2024/01/25 14:37:06;;;;;;;84.00;64.20;;;;;;;;;;10098337;28;20140;-77
2024/01/25 14:41:57;;;;;;;77.95;62.97;;;;;;;;;;10104705;28;20100;-77
2024/01/25 14:46:49;;;;;;;85.47;71.00;;;;;;;;;;10096859;28;20464;-78
2024/01/25 14:51:42;;;;;;;82.57;69.43;;;;;;;;;;10102508;28;20129;-79
2024/01/25 14:56:34;;;;;;;85.10;68.70;;;;;;;;;;10097464;28;20128;-77
2024/01/25 15:01:30;;;;;;;88.80;67.78;;;;;;;;;;10098630;28;20040;-78
2024/01/25 15:06:23;;;;;;;76.47;66.05;;;;;;;;;;10100359;28;20041;-78
2024/01/25 15:11:17;;;;;;;106.30;86.85;;;;;;;;;;10083162;28;20117;-78
2024/01/25 15:16:09;;;;;;;119.82;89.85;;;;;;;;;;10099419;28;20622;-79
2024/01/25 15:21:01;;;;;;;99.72;76.65;;;;;;;;;;10099892;28;20123;-78
2024/01/25 15:25:53;;;;;;;85.88;74.07;;;;;;;;;;10092802;28;20045;-78
2024/01/25 15:30:45;;;;;;;93.28;74.32;;;;;;;;;;10103119;28;20526;-79
2024/01/25 15:35:37;;;;;;;107.97;79.18;;;;;;;;;;10099379;28;20065;-78
2024/01/25 15:40:29;;;;;;;140.25;103.53;;;;;;;;;;10088006;28;20064;-79
2024/01/25 15:45:21;;;;;;;106.03;88.30;;;;;;;;;;10090022;28;20045;-78
2024/01/25 15:50:14;;;;;;;115.10;94.10;;;;;;;;;;10101242;28;20045;-77
2024/01/25 15:55:06;;;;;;;124.60;96.90;;;;;;;;;;10099323;28;20041;-77
2024/01/25 15:59:58;;;;;;;236.00;182.95;;;;;;;;;;10094350;28;20531;-74
2024/01/25 16:04:51;;;;;;;94.32;74.88;;;;;;;;;;10095002;28;20049;-75
2024/01/25 16:09:43;;;;;;;125.32;102.13;;;;;;;;;;10101236;28;20045;-75
2024/01/25 16:14:35;;;;;;;125.05;93.07;;;;;;;;;;10099729;28;20060;-75
2024/01/25 16:19:26;;;;;;;105.05;82.03;;;;;;;;;;10100487;28;20399;-75
2024/01/25 16:24:19;;;;;;;109.18;81.75;;;;;;;;;;10094726;28;20045;-77
2024/01/25 16:29:11;;;;;;;129.05;102.43;;;;;;;;;;10089458;28;20476;-75
2024/01/25 16:34:03;;;;;;;108.70;82.93;;;;;;;;;;10098809;28;20053;-75
2024/01/25 16:38:57;;;;;;;89.75;72.97;;;;;;;;;;10099370;28;20049;-74
2024/01/25 16:43:49;;;;;;;114.70;86.22;;;;;;;;;;10098589;28;20075;-75
2024/01/25 16:48:40;;;;;;;102.82;81.25;;;;;;;;;;10099382;28;20094;-74
2024/01/25 16:53:32;;;;;;;103.95;78.80;;;;;;;;;;10096933;28;20038;-77
2024/01/25 16:58:24;;;;;;;209.25;152.80;;;;;;;;;;10075311;28;20060;-77
2024/01/25 17:03:16;;;;;;;110.43;82.40;;;;;;;;;;10084689;28;20069;-77
2024/01/25 17:08:08;;;;;;;132.30;99.18;;;;;;;;;;10090255;28;20041;-77
2024/01/25 17:13:00;;;;;;;103.60;75.93;;;;;;;;;;10085527;28;20380;-77
2024/01/25 17:17:52;;;;;;;100.43;77.70;;;;;;;;;;10095855;28;20051;-76
2024/01/25 17:22:44;;;;;;;128.18;93.28;;;;;;;;;;10098285;28;20449;-76
2024/01/25 17:27:37;;;;;;;145.65;103.85;;;;;;;;;;10098382;28;20044;-76
2024/01/25 17:32:29;;;;;;;125.70;91.72;;;;;;;;;;10089765;28;20396;-76
2024/01/25 17:37:21;;;;;;;130.32;91.75;;;;;;;;;;10093683;28;20056;-76
2024/01/25 17:42:13;;;;;;;86.35;69.28;;;;;;;;;;10099515;28;20048;-75
2024/01/25 17:47:05;;;;;;;94.85;75.65;;;;;;;;;;10095242;28;20060;-75
2024/01/25 17:51:57;;;;;;;106.75;84.53;;;;;;;;;;10089174;28;20397;-76
2024/01/25 17:56:49;;;;;;;128.52;92.03;;;;;;;;;;10094553;28;20065;-76
2024/01/25 18:01:41;;;;;;;149.35;101.43;;;;;;;;;;10102227;28;20041;-77
2024/01/25 18:06:33;;;;;;;106.75;81.55;;;;;;;;;;10105009;28;20321;-75
2024/01/25 18:11:25;;;;;;;128.90;88.70;;;;;;;;;;10104988;28;20041;-74
2024/01/25 18:16:17;;;;;;;108.63;82.28;;;;;;;;;;10094712;28;20437;-74
2024/01/25 18:21:09;;;;;;;93.10;77.55;;;;;;;;;;10095377;28;20579;-74
2024/01/25 18:26:01;;;;;;;100.40;77.18;;;;;;;;;;10105525;28;20095;-74
2024/01/25 18:30:53;;;;;;;91.32;74.38;;;;;;;;;;10098544;28;20045;-74
2024/01/25 18:35:45;;;;;;;91.50;73.47;;;;;;;;;;10097319;28;20115;-74
2024/01/25 18:40:37;;;;;;;163.35;105.10;;;;;;;;;;10103829;28;20090;-74
2024/01/25 18:45:30;;;;;;;91.00;75.85;;;;;;;;;;10099013;28;20044;-74
2024/01/25 18:50:22;;;;;;;100.53;76.30;;;;;;;;;;10094625;28;20103;-74
2024/01/25 18:55:14;;;;;;;88.50;72.82;;;;;;;;;;10098951;28;20072;-75
2024/01/25 19:00:08;;;;;;;85.07;70.65;;;;;;;;;;10098659;28;20437;-75
2024/01/25 19:05:01;;;;;;;86.90;70.32;;;;;;;;;;10088616;28;20531;-74
2024/01/25 19:09:54;;;;;;;92.15;71.55;;;;;;;;;;10103134;28;20041;-71
2024/01/25 19:14:46;;;;;;;92.53;73.85;;;;;;;;;;10102921;28;20056;-72
2024/01/25 19:19:38;;;;;;;88.70;73.70;;;;;;;;;;10103390;28;20063;-72
2024/01/25 19:24:30;;;;;;;94.43;70.22;;;;;;;;;;10103593;28;20037;-74
2024/01/25 19:29:23;;;;;;;85.10;70.15;;;;;;;;;;10102065;28;20099;-74
2024/01/25 19:34:16;;;;;;;105.75;75.63;;;;;;;;;;10101966;28;20036;-74
2024/01/25 19:39:09;;;;;;;96.65;78.32;;;;;;;;;;10101634;28;20150;-73
2024/01/25 19:44:01;;;;;;;93.63;74.07;;;;;;;;;;10091773;28;20373;-71
2024/01/25 19:48:53;;;;;;;92.75;72.07;;;;;;;;;;10082502;28;20037;-70
2024/01/25 19:53:45;;;;;;;91.55;75.80;;;;;;;;;;10104990;28;20048;-71
2024/01/25 19:58:38;;;;;;;96.10;73.60;;;;;;;;;;10096409;28;20046;-71
2024/01/25 20:03:30;;;;;;;100.78;77.55;;;;;;;;;;10086905;28;20076;-71
2024/01/25 20:08:22;;;;;;;108.63;80.70;;;;;;;;;;10097078;28;20051;-71
2024/01/25 20:13:14;;;;;;;110.60;82.95;;;;;;;;;;10080332;28;20460;-72
2024/01/25 20:18:06;;;;;;;112.72;86.85;;;;;;;;;;10099330;28;20152;-70
2024/01/25 20:22:58;;;;;;;110.18;86.85;;;;;;;;;;10103724;28;20073;-70
2024/01/25 20:27:50;;;;;;;109.80;84.07;;;;;;;;;;10094520;28;20056;-71
2024/01/25 20:32:43;;;;;;;111.88;88.68;;;;;;;;;;10096758;28;20041;-71
2024/01/25 20:37:35;;;;;;;131.35;101.53;;;;;;;;;;10072107;28;20099;-72
2024/01/25 20:42:27;;;;;;;124.80;93.32;;;;;;;;;;10093881;28;20055;-71
2024/01/25 20:47:19;;;;;;;129.13;100.78;;;;;;;;;;10090018;28;20358;-71
2024/01/25 20:52:11;;;;;;;127.68;100.60;;;;;;;;;;10093465;28;20480;-71
2024/01/25 20:57:03;;;;;;;132.68;99.00;;;;;;;;;;10083538;28;20148;-71
2024/01/25 21:01:56;;;;;;;133.23;96.80;;;;;;;;;;10085591;28;20069;-71
2024/01/25 21:06:49;;;;;;;122.03;91.70;;;;;;;;;;10077123;28;20689;-71
2024/01/25 21:11:41;;;;;;;113.97;88.75;;;;;;;;;;10086012;28;20128;-71
2024/01/25 21:16:33;;;;;;;108.95;84.38;;;;;;;;;;10065766;28;20099;-71
2024/01/25 21:21:25;;;;;;;103.55;85.53;;;;;;;;;;10082516;28;20140;-70
2024/01/25 21:26:17;;;;;;;117.95;87.93;;;;;;;;;;10080223;28;20356;-71
2024/01/25 21:31:09;;;;;;;106.50;84.35;;;;;;;;;;10076364;28;20068;-72
2024/01/25 21:36:01;;;;;;;106.57;84.60;;;;;;;;;;10073010;28;20132;-71
2024/01/25 21:40:53;;;;;;;101.28;75.53;;;;;;;;;;10064409;28;20055;-72
2024/01/25 21:45:45;;;;;;;97.30;77.05;;;;;;;;;;10065636;28;20041;-71
2024/01/25 21:50:37;;;;;;;99.55;77.00;;;;;;;;;;10090591;28;20116;-71
2024/01/25 21:55:29;;;;;;;104.35;83.03;;;;;;;;;;10078413;28;20051;-71
2024/01/25 22:00:22;;;;;;;108.35;83.80;;;;;;;;;;10085634;28;20045;-71
2024/01/25 22:05:14;;;;;;;109.10;82.88;;;;;;;;;;10084723;28;20104;-72
2024/01/25 22:10:07;;;;;;;104.90;79.43;;;;;;;;;;10078732;28;20468;-72
2024/01/25 22:14:59;;;;;;;106.13;82.07;;;;;;;;;;10075594;28;20365;-72
2024/01/25 22:19:51;;;;;;;94.03;75.70;;;;;;;;;;10074006;28;20050;-72
2024/01/25 22:24:43;;;;;;;101.65;76.00;;;;;;;;;;10077883;28;20037;-72
2024/01/25 22:29:35;;;;;;;103.18;78.65;;;;;;;;;;10077193;28;20095;-72
2024/01/25 22:34:27;;;;;;;95.05;77.13;;;;;;;;;;10062618;28;20042;-72
2024/01/25 22:39:19;;;;;;;92.28;74.75;;;;;;;;;;10064247;28;20041;-72
2024/01/25 22:44:11;;;;;;;105.63;77.78;;;;;;;;;;10062731;28;20069;-72
2024/01/25 22:49:04;;;;;;;113.68;80.80;;;;;;;;;;10070845;28;20120;-72
2024/01/25 22:53:56;;;;;;;94.25;75.85;;;;;;;;;;10070400;28;20064;-71
2024/01/25 22:58:48;;;;;;;90.85;68.63;;;;;;;;;;10075160;28;20053;-71
2024/01/25 23:03:42;;;;;;;87.13;68.30;;;;;;;;;;10094056;28;20041;-71
2024/01/25 23:08:34;;;;;;;81.97;67.63;;;;;;;;;;10078514;28;20041;-71
2024/01/25 23:13:26;;;;;;;84.97;64.55;;;;;;;;;;10083034;28;20119;-71
2024/01/25 23:18:18;;;;;;;87.15;66.88;;;;;;;;;;10090702;28;20051;-72
2024/01/25 23:23:13;;;;;;;87.43;71.00;;;;;;;;;;10088607;28;20049;-72
2024/01/25 23:28:05;;;;;;;111.25;80.90;;;;;;;;;;10082237;28;20077;-72
2024/01/25 23:32:57;;;;;;;115.22;85.93;;;;;;;;;;10085269;28;20061;-71
2024/01/25 23:37:49;;;;;;;86.97;71.45;;;;;;;;;;10069318;28;20053;-72
2024/01/25 23:42:41;;;;;;;92.00;69.32;;;;;;;;;;10069154;28;20068;-72
2024/01/25 23:47:33;;;;;;;102.95;81.05;;;;;;;;;;10069044;28;20041;-71
2024/01/25 23:52:25;;;;;;;82.68;61.30;;;;;;;;;;10068743;28;20368;-72
2024/01/25 23:57:18;;;;;;;81.65;61.92;;;;;;;;;;10073760;28;20439;-72
